sensor_id;sensor_type;location;lat;lon;timestamp;pressure;altitude;pressure_sealevel;temperature;humidity
59391;BME280;53405;57.012;40.984;2022-08-01T00:02:20;100373.16;;;15.78;75.06
59391;BME280;53405;57.012;40.984;2022-08-01T00:05:08;100388.28;;;15.84;74.48
59391;BME280;53405;57.012;40.984;2022-08-01T00:07:56;100412.44;;;15.96;74.18
59391;BME280;53405;57.012;40.984;2022-08-01T00:10:43;100412.00;;;15.92;74.65
59391;BME280;53405;57.012;40.984;2022-08-01T00:13:31;100402.59;;;15.83;74.97
59391;BME280;53405;57.012;40.984;2022-08-01T00:16:19;100408.91;;;15.75;74.96
59391;BME280;53405;57.012;40.984;2022-08-01T00:19:09;100402.75;;;15.75;75.39
59391;BME280;53405;57.012;40.984;2022-08-01T00:21:57;100398.25;;;15.68;76.03
59391;BME280;53405;57.012;40.984;2022-08-01T00:24:44;100403.59;;;15.75;75.88
59391;BME280;53405;57.012;40.984;2022-08-01T00:27:32;100404.41;;;15.76;75.28
59391;BME280;53405;57.012;40.984;2022-08-01T00:30:20;100400.75;;;15.77;75.28
59391;BME280;53405;57.012;40.984;2022-08-01T00:33:07;100404.03;;;15.79;75.23
59391;BME280;53405;57.012;40.984;2022-08-01T00:35:55;100406.06;;;15.77;75.40
59391;BME280;53405;57.012;40.984;2022-08-01T00:38:42;100407.69;;;15.78;74.90
59391;BME280;53405;57.012;40.984;2022-08-01T00:41:30;100383.53;;;15.59;75.44
59391;BME280;53405;57.012;40.984;2022-08-01T00:44:17;100400.91;;;15.68;75.26
59391;BME280;53405;57.012;40.984;2022-08-01T00:47:06;100396.81;;;15.66;75.39
59391;BME280;53405;57.012;40.984;2022-08-01T00:49:54;100408.66;;;15.63;75.77
59391;BME280;53405;57.012;40.984;2022-08-01T00:52:41;100407.41;;;15.59;75.68
59391;BME280;53405;57.012;40.984;2022-08-01T00:55:31;100408.84;;;15.55;76.25
59391;BME280;53405;57.012;40.984;2022-08-01T00:58:19;100415.16;;;15.47;75.77
59391;BME280;53405;57.012;40.984;2022-08-01T01:01:07;100408.41;;;15.45;76.03
59391;BME280;53405;57.012;40.984;2022-08-01T01:03:54;100411.69;;;15.47;76.31
59391;BME280;53405;57.012;40.984;2022-08-01T01:10:08;100418.59;;;15.34;76.21
59391;BME280;53405;57.012;40.984;2022-08-01T01:13:05;100411.41;;;15.28;75.96
59391;BME280;53405;57.012;40.984;2022-08-01T01:16:04;100416.13;;;15.26;76.35
59391;BME280;53405;57.012;40.984;2022-08-01T01:18:55;100412.81;;;15.24;76.40
59391;BME280;53405;57.012;40.984;2022-08-01T01:21:47;100401.38;;;15.17;77.60
59391;BME280;53405;57.012;40.984;2022-08-01T01:31:31;100417.66;;;15.07;77.05
59391;BME280;53405;57.012;40.984;2022-08-01T01:34:21;100424.56;;;15.02;77.24
59391;BME280;53405;57.012;40.984;2022-08-01T01:37:14;100420.22;;;14.94;77.35
59391;BME280;53405;57.012;40.984;2022-08-01T01:40:04;100405.47;;;14.78;77.31
59391;BME280;53405;57.012;40.984;2022-08-01T01:42:54;100420.59;;;14.84;77.89
59391;BME280;53405;57.012;40.984;2022-08-01T01:45:45;100408.28;;;14.70;77.98
59391;BME280;53405;57.012;40.984;2022-08-01T01:48:35;100414.63;;;14.75;78.20
59391;BME280;53405;57.012;40.984;2022-08-01T01:51:25;100418.09;;;14.76;78.26
59391;BME280;53405;57.012;40.984;2022-08-01T01:54:14;100415.84;;;14.73;78.46
59391;BME280;53405;57.012;40.984;2022-08-01T01:57:03;100420.69;;;14.69;78.38
59391;BME280;53405;57.012;40.984;2022-08-01T01:59:53;100416.63;;;14.67;78.73
59391;BME280;53405;57.012;40.984;2022-08-01T02:02:43;100411.75;;;14.70;79.07
59391;BME280;53405;57.012;40.984;2022-08-01T02:05:31;100418.09;;;14.76;79.12
59391;BME280;53405;57.012;40.984;2022-08-01T02:08:22;100415.88;;;14.79;78.90
59391;BME280;53405;57.012;40.984;2022-08-01T02:11:10;100416.69;;;14.80;78.93
59391;BME280;53405;57.012;40.984;2022-08-01T02:14:10;100400.13;;;14.71;78.86
59391;BME280;53405;57.012;40.984;2022-08-01T02:16:58;100400.78;;;14.80;78.65
59391;BME280;53405;57.012;40.984;2022-08-01T02:19:47;100410.22;;;14.89;79.16
59391;BME280;53405;57.012;40.984;2022-08-01T02:22:41;100421.69;;;14.96;79.14
59391;BME280;53405;57.012;40.984;2022-08-01T02:25:33;100414.75;;;14.95;78.76
59391;BME280;53405;57.012;40.984;2022-08-01T02:28:31;100414.75;;;15.02;78.56
59391;BME280;53405;57.012;40.984;2022-08-01T02:31:21;100417.84;;;15.06;78.74
59391;BME280;53405;57.012;40.984;2022-08-01T02:34:10;100411.75;;;15.12;78.52
59391;BME280;53405;57.012;40.984;2022-08-01T02:37:02;100417.28;;;15.17;78.24
59391;BME280;53405;57.012;40.984;2022-08-01T02:39:52;100417.09;;;15.18;77.44
59391;BME280;53405;57.012;40.984;2022-08-01T02:42:45;100414.84;;;15.15;77.55
59391;BME280;53405;57.012;40.984;2022-08-01T02:45:37;100412.19;;;15.15;78.05
59391;BME280;53405;57.012;40.984;2022-08-01T02:48:26;100418.75;;;15.26;77.96
59391;BME280;53405;57.012;40.984;2022-08-01T02:51:16;100404.84;;;15.24;77.06
59391;BME280;53405;57.012;40.984;2022-08-01T02:54:06;100427.75;;;15.32;76.69
59391;BME280;53405;57.012;40.984;2022-08-01T02:56:55;100423.47;;;15.31;77.88
59391;BME280;53405;57.012;40.984;2022-08-01T02:59:44;100425.91;;;15.32;78.21
59391;BME280;53405;57.012;40.984;2022-08-01T03:02:33;100436.56;;;15.46;77.66
59391;BME280;53405;57.012;40.984;2022-08-01T03:05:24;100438.25;;;15.53;76.94
59391;BME280;53405;57.012;40.984;2022-08-01T03:08:13;100443.97;;;15.57;77.76
59391;BME280;53405;57.012;40.984;2022-08-01T03:11:02;100438.50;;;15.72;76.39
59391;BME280;53405;57.012;40.984;2022-08-01T03:13:53;100438.91;;;15.76;76.97
59391;BME280;53405;57.012;40.984;2022-08-01T03:16:44;100435.88;;;15.85;77.10
59391;BME280;53405;57.012;40.984;2022-08-01T03:19:33;100433.88;;;15.94;76.91
59391;BME280;53405;57.012;40.984;2022-08-01T03:22:23;100433.47;;;16.04;76.77
59391;BME280;53405;57.012;40.984;2022-08-01T03:25:14;100433.88;;;16.14;77.41
59391;BME280;53405;57.012;40.984;2022-08-01T03:28:04;100421.63;;;16.26;76.79
59391;BME280;53405;57.012;40.984;2022-08-01T03:30:53;100427.53;;;16.29;76.43
59391;BME280;53405;57.012;40.984;2022-08-01T03:33:41;100416.50;;;16.38;76.36
59391;BME280;53405;57.012;40.984;2022-08-01T03:36:31;100424.28;;;16.47;75.46
59391;BME280;53405;57.012;40.984;2022-08-01T03:39:20;100428.97;;;16.44;75.81
59391;BME280;53405;57.012;40.984;2022-08-01T03:42:15;100431.41;;;16.53;75.10
59391;BME280;53405;57.012;40.984;2022-08-01T03:45:09;100430.59;;;16.59;74.46
59391;BME280;53405;57.012;40.984;2022-08-01T03:48:02;100428.94;;;16.65;74.36
59391;BME280;53405;57.012;40.984;2022-08-01T03:50:52;100426.50;;;16.70;74.46
59391;BME280;53405;57.012;40.984;2022-08-01T03:53:42;100432.19;;;16.80;74.26
59391;BME280;53405;57.012;40.984;2022-08-01T03:56:30;100424.38;;;16.85;74.19
59391;BME280;53405;57.012;40.984;2022-08-01T03:59:19;100425.03;;;16.94;74.28
59391;BME280;53405;57.012;40.984;2022-08-01T04:02:08;100430.13;;;17.02;73.82
59391;BME280;53405;57.012;40.984;2022-08-01T04:04:56;100424.75;;;17.09;73.97
59391;BME280;53405;57.012;40.984;2022-08-01T04:07:50;100421.88;;;17.17;70.08
59391;BME280;53405;57.012;40.984;2022-08-01T04:10:42;100438.63;;;17.24;69.16
59391;BME280;53405;57.012;40.984;2022-08-01T04:13:31;100442.50;;;17.28;69.72
59391;BME280;53405;57.012;40.984;2022-08-01T04:16:20;100428.16;;;17.29;69.70
59391;BME280;53405;57.012;40.984;2022-08-01T04:19:07;100442.03;;;17.45;69.71
59391;BME280;53405;57.012;40.984;2022-08-01T04:21:55;100439.75;;;17.48;69.71
59391;BME280;53405;57.012;40.984;2022-08-01T04:24:46;100445.44;;;17.59;68.58
59391;BME280;53405;57.012;40.984;2022-08-01T04:27:43;100456.25;;;17.64;68.49
59391;BME280;53405;57.012;40.984;2022-08-01T04:30:35;100452.16;;;17.68;70.65
59391;BME280;53405;57.012;40.984;2022-08-01T04:33:24;100453.13;;;17.74;70.85
59391;BME280;53405;57.012;40.984;2022-08-01T04:36:14;100446.31;;;17.84;70.54
59391;BME280;53405;57.012;40.984;2022-08-01T04:39:03;100446.47;;;17.96;70.10
59391;BME280;53405;57.012;40.984;2022-08-01T04:41:52;100448.06;;;18.04;69.00
59391;BME280;53405;57.012;40.984;2022-08-01T04:44:44;100454.19;;;18.04;70.13
59391;BME280;53405;57.012;40.984;2022-08-01T04:47:31;100436.78;;;18.02;69.16
59391;BME280;53405;57.012;40.984;2022-08-01T04:50:20;100440.59;;;18.13;70.49
59391;BME280;53405;57.012;40.984;2022-08-01T04:53:13;100428.97;;;18.07;69.57
59391;BME280;53405;57.012;40.984;2022-08-01T04:56:01;100456.66;;;18.31;69.60
59391;BME280;53405;57.012;40.984;2022-08-01T04:58:49;100453.78;;;18.33;68.80
59391;BME280;53405;57.012;40.984;2022-08-01T05:01:56;100465.16;;;18.47;68.16
59391;BME280;53405;57.012;40.984;2022-08-01T05:04:45;100461.78;;;18.58;66.48
59391;BME280;53405;57.012;40.984;2022-08-01T05:07:33;100468.31;;;18.62;67.25
59391;BME280;53405;57.012;40.984;2022-08-01T05:10:23;100462.69;;;18.70;67.09
59391;BME280;53405;57.012;40.984;2022-08-01T05:13:11;100470.03;;;18.75;68.01
59391;BME280;53405;57.012;40.984;2022-08-01T05:15:59;100461.72;;;18.83;67.84
59391;BME280;53405;57.012;40.984;2022-08-01T05:18:46;100455.19;;;18.86;67.66
59391;BME280;53405;57.012;40.984;2022-08-01T05:21:34;100464.06;;;18.98;64.77
59391;BME280;53405;57.012;40.984;2022-08-01T05:24:22;100466.69;;;19.05;63.61
59391;BME280;53405;57.012;40.984;2022-08-01T05:27:09;100469.03;;;19.13;63.18
59391;BME280;53405;57.012;40.984;2022-08-01T05:29:57;100462.72;;;19.26;62.23
59391;BME280;53405;57.012;40.984;2022-08-01T05:32:45;100465.19;;;19.27;60.78
59391;BME280;53405;57.012;40.984;2022-08-01T05:35:32;100460.88;;;19.26;61.02
59391;BME280;53405;57.012;40.984;2022-08-01T05:38:20;100453.81;;;19.32;61.57
59391;BME280;53405;57.012;40.984;2022-08-01T05:41:07;100454.72;;;19.44;63.23
59391;BME280;53405;57.012;40.984;2022-08-01T05:43:55;100447.34;;;19.58;62.58
59391;BME280;53405;57.012;40.984;2022-08-01T05:46:42;100416.66;;;19.49;59.91
59391;BME280;53405;57.012;40.984;2022-08-01T05:49:30;100447.59;;;19.68;60.15
59391;BME280;53405;57.012;40.984;2022-08-01T05:52:17;100438.09;;;19.73;61.69
59391;BME280;53405;57.012;40.984;2022-08-01T05:55:05;100443.13;;;19.81;60.21
59391;BME280;53405;57.012;40.984;2022-08-01T05:57:53;100444.78;;;19.82;61.89
59391;BME280;53405;57.012;40.984;2022-08-01T06:00:41;100439.69;;;19.92;60.32
59391;BME280;53405;57.012;40.984;2022-08-01T06:03:28;100436.31;;;19.97;58.96
59391;BME280;53405;57.012;40.984;2022-08-01T06:06:18;100438.31;;;20.01;58.70
59391;BME280;53405;57.012;40.984;2022-08-01T06:09:05;100435.63;;;20.01;58.22
59391;BME280;53405;57.012;40.984;2022-08-01T06:11:53;100440.88;;;20.08;58.41
59391;BME280;53405;57.012;40.984;2022-08-01T06:14:41;100430.06;;;20.15;58.43
59391;BME280;53405;57.012;40.984;2022-08-01T06:17:28;100434.50;;;20.21;59.08
59391;BME280;53405;57.012;40.984;2022-08-01T06:20:16;100437.78;;;20.23;59.94
59391;BME280;53405;57.012;40.984;2022-08-01T06:23:04;100443.81;;;20.30;59.23
59391;BME280;53405;57.012;40.984;2022-08-01T06:25:52;100434.41;;;20.39;58.92
59391;BME280;53405;57.012;40.984;2022-08-01T06:28:41;100442.91;;;20.48;58.57
59391;BME280;53405;57.012;40.984;2022-08-01T06:31:28;100441.38;;;20.52;58.50
59391;BME280;53405;57.012;40.984;2022-08-01T06:34:19;100448.00;;;20.62;56.57
59391;BME280;53405;57.012;40.984;2022-08-01T06:37:06;100449.53;;;20.69;56.66
59391;BME280;53405;57.012;40.984;2022-08-01T06:39:54;100452.91;;;20.77;52.20
59391;BME280;53405;57.012;40.984;2022-08-01T06:42:41;100452.56;;;20.85;51.89
59391;BME280;53405;57.012;40.984;2022-08-01T06:45:29;100454.63;;;20.94;52.19
59391;BME280;53405;57.012;40.984;2022-08-01T06:48:16;100454.63;;;20.94;52.36
59391;BME280;53405;57.012;40.984;2022-08-01T06:51:06;100455.34;;;20.90;54.10
59391;BME280;53405;57.012;40.984;2022-08-01T06:53:56;100449.75;;;20.91;55.90
59391;BME280;53405;57.012;40.984;2022-08-01T06:56:44;100461.34;;;21.09;54.37
59391;BME280;53405;57.012;40.984;2022-08-01T06:59:32;100460.19;;;21.17;53.59
59391;BME280;53405;57.012;40.984;2022-08-01T07:02:20;100447.13;;;21.20;52.23
59391;BME280;53405;57.012;40.984;2022-08-01T07:05:08;100441.66;;;21.15;52.72
59391;BME280;53405;57.012;40.984;2022-08-01T07:07:56;100455.47;;;21.36;52.94
59391;BME280;53405;57.012;40.984;2022-08-01T07:10:44;100447.50;;;21.53;52.94
59391;BME280;53405;57.012;40.984;2022-08-01T07:13:31;100445.69;;;21.70;51.92
59391;BME280;53405;57.012;40.984;2022-08-01T07:16:19;100438.22;;;21.72;51.88
59391;BME280;53405;57.012;40.984;2022-08-01T07:19:07;100446.13;;;21.96;52.15
59391;BME280;53405;57.012;40.984;2022-08-01T07:21:55;100441.38;;;22.32;50.38
59391;BME280;53405;57.012;40.984;2022-08-01T07:24:42;100424.22;;;22.33;50.18
59391;BME280;53405;57.012;40.984;2022-08-01T07:27:30;100447.03;;;22.52;49.05
59391;BME280;53405;57.012;40.984;2022-08-01T07:30:17;100445.03;;;22.43;48.26
59391;BME280;53405;57.012;40.984;2022-08-01T07:33:05;100451.19;;;22.43;48.86
59391;BME280;53405;57.012;40.984;2022-08-01T07:35:55;100437.34;;;22.51;49.21
59391;BME280;53405;57.012;40.984;2022-08-01T07:38:43;100440.84;;;22.69;49.60
59391;BME280;53405;57.012;40.984;2022-08-01T07:41:31;100447.94;;;22.97;48.92
59391;BME280;53405;57.012;40.984;2022-08-01T07:44:19;100439.69;;;23.26;46.94
59391;BME280;53405;57.012;40.984;2022-08-01T07:47:06;100439.78;;;23.36;46.82
59391;BME280;53405;57.012;40.984;2022-08-01T07:50:01;100431.31;;;23.44;46.30
59391;BME280;53405;57.012;40.984;2022-08-01T07:52:49;100451.63;;;23.62;46.36
59391;BME280;53405;57.012;40.984;2022-08-01T07:55:37;100454.13;;;23.69;45.02
59391;BME280;53405;57.012;40.984;2022-08-01T07:58:24;100452.50;;;23.68;45.48
59391;BME280;53405;57.012;40.984;2022-08-01T08:01:12;100439.41;;;23.50;45.21
59391;BME280;53405;57.012;40.984;2022-08-01T08:03:59;100445.56;;;23.23;46.45
59391;BME280;53405;57.012;40.984;2022-08-01T08:06:47;100439.78;;;22.92;46.93
59391;BME280;53405;57.012;40.984;2022-08-01T08:09:35;100437.47;;;22.79;46.85
59391;BME280;53405;57.012;40.984;2022-08-01T08:12:23;100432.97;;;23.06;45.99
59391;BME280;53405;57.012;40.984;2022-08-01T08:15:12;100434.41;;;23.36;45.23
59391;BME280;53405;57.012;40.984;2022-08-01T08:18:00;100441.13;;;23.61;45.68
59391;BME280;53405;57.012;40.984;2022-08-01T08:20:47;100432.41;;;23.49;41.50
59391;BME280;53405;57.012;40.984;2022-08-01T08:23:35;100431.50;;;23.16;41.28
59391;BME280;53405;57.012;40.984;2022-08-01T08:26:41;100437.22;;;22.80;43.46
59391;BME280;53405;57.012;40.984;2022-08-01T08:29:30;100435.09;;;22.43;45.43
59391;BME280;53405;57.012;40.984;2022-08-01T08:32:19;100430.22;;;22.23;46.30
59391;BME280;53405;57.012;40.984;2022-08-01T08:35:08;100428.75;;;22.15;46.04
59391;BME280;53405;57.012;40.984;2022-08-01T08:37:56;100426.50;;;22.41;46.80
59391;BME280;53405;57.012;40.984;2022-08-01T08:40:44;100429.63;;;23.66;43.95
59391;BME280;53405;57.012;40.984;2022-08-01T08:43:32;100423.97;;;24.27;42.86
59391;BME280;53405;57.012;40.984;2022-08-01T08:46:20;100423.38;;;25.20;41.97
59391;BME280;53405;57.012;40.984;2022-08-01T08:49:08;100426.19;;;25.56;39.38
59391;BME280;53405;57.012;40.984;2022-08-01T08:51:58;100428.09;;;25.87;40.41
59391;BME280;53405;57.012;40.984;2022-08-01T08:54:48;100429.16;;;26.42;38.59
59391;BME280;53405;57.012;40.984;2022-08-01T08:57:39;100421.72;;;26.99;36.51
59391;BME280;53405;57.012;40.984;2022-08-01T09:00:27;100424.94;;;27.56;36.40
59391;BME280;53405;57.012;40.984;2022-08-01T09:03:15;100423.22;;;28.05;34.84
59391;BME280;53405;57.012;40.984;2022-08-01T09:06:02;100420.47;;;28.10;33.99
59391;BME280;53405;57.012;40.984;2022-08-01T09:08:50;100414.16;;;28.20;33.93
59391;BME280;53405;57.012;40.984;2022-08-01T09:11:38;100424.69;;;28.22;34.96
59391;BME280;53405;57.012;40.984;2022-08-01T09:14:26;100425.97;;;28.54;34.28
59391;BME280;53405;57.012;40.984;2022-08-01T09:17:22;100429.94;;;29.10;33.08
59391;BME280;53405;57.012;40.984;2022-08-01T09:20:22;100411.63;;;29.01;33.17
59391;BME280;53405;57.012;40.984;2022-08-01T09:23:31;100431.22;;;29.74;30.36
59391;BME280;53405;57.012;40.984;2022-08-01T09:26:41;100421.72;;;29.20;32.41
59391;BME280;53405;57.012;40.984;2022-08-01T09:29:30;100418.34;;;29.47;32.17
59391;BME280;53405;57.012;40.984;2022-08-01T09:32:19;100426.06;;;28.97;31.29
59391;BME280;53405;57.012;40.984;2022-08-01T09:38:18;100410.56;;;29.60;30.68
59391;BME280;53405;57.012;40.984;2022-08-01T09:41:06;100413.56;;;30.10;29.15
59391;BME280;53405;57.012;40.984;2022-08-01T09:43:54;100417.53;;;30.45;28.97
59391;BME280;53405;57.012;40.984;2022-08-01T09:46:55;100423.66;;;30.65;28.71
59391;BME280;53405;57.012;40.984;2022-08-01T09:49:43;100422.47;;;30.43;29.67
59391;BME280;53405;57.012;40.984;2022-08-01T09:52:32;100417.06;;;30.11;29.83
59391;BME280;53405;57.012;40.984;2022-08-01T09:55:21;100407.72;;;28.40;32.80
59391;BME280;53405;57.012;40.984;2022-08-01T09:58:09;100410.38;;;27.02;35.34
59391;BME280;53405;57.012;40.984;2022-08-01T10:00:59;100395.19;;;26.10;35.47
59391;BME280;53405;57.012;40.984;2022-08-01T10:04:08;100391.41;;;26.32;37.13
59391;BME280;53405;57.012;40.984;2022-08-01T10:07:04;100405.97;;;27.62;34.28
59391;BME280;53405;57.012;40.984;2022-08-01T10:09:52;100414.09;;;28.25;34.35
59391;BME280;53405;57.012;40.984;2022-08-01T10:12:41;100411.16;;;28.22;32.52
59391;BME280;53405;57.012;40.984;2022-08-01T10:15:30;100410.56;;;28.54;31.24
59391;BME280;53405;57.012;40.984;2022-08-01T10:18:18;100397.78;;;26.77;34.24
59391;BME280;53405;57.012;40.984;2022-08-01T10:21:07;100393.84;;;25.82;36.29
59391;BME280;53405;57.012;40.984;2022-08-01T10:23:55;100403.94;;;25.08;37.18
59391;BME280;53405;57.012;40.984;2022-08-01T10:26:52;100390.69;;;24.43;38.13
59391;BME280;53405;57.012;40.984;2022-08-01T10:29:47;100406.72;;;24.60;38.28
59391;BME280;53405;57.012;40.984;2022-08-01T10:32:37;100401.56;;;25.17;38.29
59391;BME280;53405;57.012;40.984;2022-08-01T10:35:25;100402.91;;;26.63;36.05
59391;BME280;53405;57.012;40.984;2022-08-01T10:38:12;100398.75;;;27.86;32.24
59391;BME280;53405;57.012;40.984;2022-08-01T10:41:02;100412.56;;;28.92;30.29
59391;BME280;53405;57.012;40.984;2022-08-01T10:43:50;100410.28;;;29.42;30.21
59391;BME280;53405;57.012;40.984;2022-08-01T10:46:39;100403.03;;;29.37;30.79
59391;BME280;53405;57.012;40.984;2022-08-01T10:49:34;100398.75;;;28.16;31.85
59391;BME280;53405;57.012;40.984;2022-08-01T10:52:22;100382.44;;;28.26;31.91
59391;BME280;53405;57.012;40.984;2022-08-01T10:55:10;100400.66;;;29.50;30.43
59391;BME280;53405;57.012;40.984;2022-08-01T10:57:57;100403.56;;;30.38;30.24
59391;BME280;53405;57.012;40.984;2022-08-01T11:00:45;100379.84;;;30.11;29.49
59391;BME280;53405;57.012;40.984;2022-08-01T11:03:35;100392.91;;;30.56;28.37
59391;BME280;53405;57.012;40.984;2022-08-01T11:09:38;100400.44;;;29.08;30.16
59391;BME280;53405;57.012;40.984;2022-08-01T11:12:38;100389.28;;;27.49;32.00
59391;BME280;53405;57.012;40.984;2022-08-01T11:15:26;100385.34;;;26.76;34.34
59391;BME280;53405;57.012;40.984;2022-08-01T11:21:13;100381.38;;;26.43;34.93
59391;BME280;53405;57.012;40.984;2022-08-01T11:24:01;100381.16;;;25.93;36.39
59391;BME280;53405;57.012;40.984;2022-08-01T11:27:16;100382.22;;;25.35;37.85
59391;BME280;53405;57.012;40.984;2022-08-01T11:32:59;100349.47;;;24.91;39.14
59391;BME280;53405;57.012;40.984;2022-08-01T11:41:48;100384.00;;;24.46;39.78
59391;BME280;53405;57.012;40.984;2022-08-01T11:44:49;100385.78;;;24.30;40.51
59391;BME280;53405;57.012;40.984;2022-08-01T11:47:44;100383.63;;;24.32;40.00
59391;BME280;53405;57.012;40.984;2022-08-01T11:50:35;100388.03;;;24.48;39.97
59391;BME280;53405;57.012;40.984;2022-08-01T11:53:23;100381.69;;;24.60;39.45
59391;BME280;53405;57.012;40.984;2022-08-01T11:56:11;100371.47;;;24.72;40.13
59391;BME280;53405;57.012;40.984;2022-08-01T11:58:59;100373.69;;;24.80;40.20
59391;BME280;53405;57.012;40.984;2022-08-01T12:01:46;100380.47;;;24.93;40.90
59391;BME280;53405;57.012;40.984;2022-08-01T12:04:54;100375.41;;;25.17;38.97
59391;BME280;53405;57.012;40.984;2022-08-01T12:07:43;100351.13;;;25.02;38.18
59391;BME280;53405;57.012;40.984;2022-08-01T12:10:34;100364.19;;;25.72;37.77
59391;BME280;53405;57.012;40.984;2022-08-01T12:13:24;100366.09;;;26.02;37.32
59391;BME280;53405;57.012;40.984;2022-08-01T12:16:12;100368.78;;;25.56;36.75
59391;BME280;53405;57.012;40.984;2022-08-01T12:18:59;100380.00;;;25.22;38.83
59391;BME280;53405;57.012;40.984;2022-08-01T12:24:54;100363.09;;;26.09;36.17
59391;BME280;53405;57.012;40.984;2022-08-01T12:27:43;100358.09;;;26.62;34.94
59391;BME280;53405;57.012;40.984;2022-08-01T12:30:32;100365.41;;;26.57;36.71
59391;BME280;53405;57.012;40.984;2022-08-01T12:33:23;100364.63;;;26.41;37.91
59391;BME280;53405;57.012;40.984;2022-08-01T12:36:10;100352.56;;;26.18;36.06
59391;BME280;53405;57.012;40.984;2022-08-01T12:38:58;100354.19;;;25.72;37.89
59391;BME280;53405;57.012;40.984;2022-08-01T12:41:49;100342.88;;;25.55;38.26
59391;BME280;53405;57.012;40.984;2022-08-01T12:44:39;100355.28;;;25.51;39.34
59391;BME280;53405;57.012;40.984;2022-08-01T12:47:26;100355.00;;;25.42;37.30
59391;BME280;53405;57.012;40.984;2022-08-01T12:50:18;100345.84;;;25.53;37.57
59391;BME280;53405;57.012;40.984;2022-08-01T12:53:07;100350.16;;;25.34;37.50
59391;BME280;53405;57.012;40.984;2022-08-01T12:55:56;100360.56;;;25.15;40.88
59391;BME280;53405;57.012;40.984;2022-08-01T12:58:43;100354.34;;;24.94;38.56
59391;BME280;53405;57.012;40.984;2022-08-01T13:01:31;100340.06;;;24.98;38.17
59391;BME280;53405;57.012;40.984;2022-08-01T13:04:19;100350.94;;;25.34;37.63
59391;BME280;53405;57.012;40.984;2022-08-01T13:07:07;100347.44;;;25.49;37.61
59391;BME280;53405;57.012;40.984;2022-08-01T13:09:55;100338.84;;;25.63;36.57
59391;BME280;53405;57.012;40.984;2022-08-01T13:12:51;100334.50;;;25.77;36.42
59391;BME280;53405;57.012;40.984;2022-08-01T13:15:41;100333.97;;;25.70;36.40
59391;BME280;53405;57.012;40.984;2022-08-01T13:18:31;100331.28;;;25.49;37.49
59391;BME280;53405;57.012;40.984;2022-08-01T13:21:24;100331.81;;;25.41;37.85
59391;BME280;53405;57.012;40.984;2022-08-01T13:24:12;100336.16;;;25.37;37.40
59391;BME280;53405;57.012;40.984;2022-08-01T13:27:02;100340.38;;;25.17;37.70
59391;BME280;53405;57.012;40.984;2022-08-01T13:29:50;100333.63;;;25.04;37.89
59391;BME280;53405;57.012;40.984;2022-08-01T13:32:40;100322.03;;;24.99;38.02
59391;BME280;53405;57.012;40.984;2022-08-01T13:35:29;100327.41;;;24.99;38.10
59391;BME280;53405;57.012;40.984;2022-08-01T13:38:17;100331.72;;;25.05;38.31
59391;BME280;53405;57.012;40.984;2022-08-01T13:41:04;100324.44;;;24.90;38.17
59391;BME280;53405;57.012;40.984;2022-08-01T13:43:52;100324.63;;;24.68;38.70
59391;BME280;53405;57.012;40.984;2022-08-01T13:46:41;100331.59;;;24.64;39.24
59391;BME280;53405;57.012;40.984;2022-08-01T13:49:29;100333.41;;;24.48;38.47
59391;BME280;53405;57.012;40.984;2022-08-01T13:52:17;100336.06;;;24.43;38.90
59391;BME280;53405;57.012;40.984;2022-08-01T13:55:05;100335.47;;;24.30;38.77
59391;BME280;53405;57.012;40.984;2022-08-01T13:57:52;100330.88;;;24.26;38.66
59391;BME280;53405;57.012;40.984;2022-08-01T14:00:40;100331.38;;;24.17;38.90
59391;BME280;53405;57.012;40.984;2022-08-01T14:03:28;100331.09;;;24.14;38.89
59391;BME280;53405;57.012;40.984;2022-08-01T14:06:15;100325.41;;;24.10;38.94
59391;BME280;53405;57.012;40.984;2022-08-01T14:09:04;100328.91;;;24.11;38.92
59391;BME280;53405;57.012;40.984;2022-08-01T14:11:51;100328.31;;;24.04;38.82
59391;BME280;53405;57.012;40.984;2022-08-01T14:14:41;100331.78;;;23.99;39.18
59391;BME280;53405;57.012;40.984;2022-08-01T14:17:29;100321.56;;;24.01;38.55
59391;BME280;53405;57.012;40.984;2022-08-01T14:20:16;100325.63;;;24.04;39.88
59391;BME280;53405;57.012;40.984;2022-08-01T14:23:07;100324.06;;;24.13;40.89
59391;BME280;53405;57.012;40.984;2022-08-01T14:25:55;100321.38;;;24.13;40.54
59391;BME280;53405;57.012;40.984;2022-08-01T14:28:42;100313.59;;;24.16;42.92
59391;BME280;53405;57.012;40.984;2022-08-01T14:31:30;100326.78;;;24.18;43.56
59391;BME280;53405;57.012;40.984;2022-08-01T14:34:19;100305.50;;;24.11;42.19
59391;BME280;53405;57.012;40.984;2022-08-01T14:37:08;100313.56;;;24.11;43.41
59391;BME280;53405;57.012;40.984;2022-08-01T14:39:57;100311.16;;;24.15;44.16
59391;BME280;53405;57.012;40.984;2022-08-01T14:42:45;100317.06;;;24.12;44.89
59391;BME280;53405;57.012;40.984;2022-08-01T14:45:32;100312.47;;;24.07;45.07
59391;BME280;53405;57.012;40.984;2022-08-01T14:48:20;100311.91;;;24.05;44.20
59391;BME280;53405;57.012;40.984;2022-08-01T14:51:08;100313.56;;;24.06;42.25
59391;BME280;53405;57.012;40.984;2022-08-01T14:53:56;100303.81;;;24.00;42.53
59391;BME280;53405;57.012;40.984;2022-08-01T14:56:43;100311.91;;;24.05;44.60
59391;BME280;53405;57.012;40.984;2022-08-01T14:59:31;100306.25;;;24.02;41.28
59391;BME280;53405;57.012;40.984;2022-08-01T15:02:22;100305.16;;;24.03;42.12
59391;BME280;53405;57.012;40.984;2022-08-01T15:05:10;100295.75;;;24.00;43.51
59391;BME280;53405;57.012;40.984;2022-08-01T15:07:58;100301.69;;;24.02;43.85